sensor_id;sensor_type;location;lat;lon;timestamp;temperature;humidity
41142;SHT31;63666;52.284;20.890;2023-04-12T00:00:25;21.10;44.09
41142;SHT31;63666;52.284;20.890;2023-04-12T00:03:16;20.99;44.37
41142;SHT31;63666;52.284;20.890;2023-04-12T00:05:51;21.13;43.95
41142;SHT31;63666;52.284;20.890;2023-04-12T00:08:29;21.07;44.04
41142;SHT31;63666;52.284;20.890;2023-04-12T00:11:04;21.10;43.96
41142;SHT31;63666;52.284;20.890;2023-04-12T00:13:39;21.06;44.00
41142;SHT31;63666;52.284;20.890;2023-04-12T00:16:13;21.00;44.06
41142;SHT31;63666;52.284;20.890;2023-04-12T00:18:48;20.90;44.23
41142;SHT31;63666;52.284;20.890;2023-04-12T00:21:24;20.82;44.37
41142;SHT31;63666;52.284;20.890;2023-04-12T00:23:58;20.83;44.43
41142;SHT31;63666;52.284;20.890;2023-04-12T00:26:34;21.10;43.92
41142;SHT31;63666;52.284;20.890;2023-04-12T00:29:08;21.08;43.81
41142;SHT31;63666;52.284;20.890;2023-04-12T00:31:44;21.05;43.95
41142;SHT31;63666;52.284;20.890;2023-04-12T00:34:19;21.07;43.92
41142;SHT31;63666;52.284;20.890;2023-04-12T00:36:55;21.04;43.79
41142;SHT31;63666;52.284;20.890;2023-04-12T00:39:29;20.93;44.16
41142;SHT31;63666;52.284;20.890;2023-04-12T00:42:04;20.94;43.93
41142;SHT31;63666;52.284;20.890;2023-04-12T00:44:38;20.91;44.18
41142;SHT31;63666;52.284;20.890;2023-04-12T00:47:13;20.96;43.97
41142;SHT31;63666;52.284;20.890;2023-04-12T00:49:47;20.90;43.98
41142;SHT31;63666;52.284;20.890;2023-04-12T00:52:23;20.66;44.45
41142;SHT31;63666;52.284;20.890;2023-04-12T00:55:06;20.60;44.56
41142;SHT31;63666;52.284;20.890;2023-04-12T00:57:40;20.61;44.52
41142;SHT31;63666;52.284;20.890;2023-04-12T01:00:16;20.56;44.57
41142;SHT31;63666;52.284;20.890;2023-04-12T01:02:50;20.56;44.53
41142;SHT31;63666;52.284;20.890;2023-04-12T01:05:27;20.56;44.72
41142;SHT31;63666;52.284;20.890;2023-04-12T01:08:14;20.68;44.32
41142;SHT31;63666;52.284;20.890;2023-04-12T01:10:59;20.44;44.70
41142;SHT31;63666;52.284;20.890;2023-04-12T01:13:43;20.69;44.38
41142;SHT31;63666;52.284;20.890;2023-04-12T01:16:26;20.88;44.03
41142;SHT31;63666;52.284;20.890;2023-04-12T01:19:10;20.98;43.76
41142;SHT31;63666;52.284;20.890;2023-04-12T01:22:09;21.00;43.71
41142;SHT31;63666;52.284;20.890;2023-04-12T01:25:00;20.91;43.78
41142;SHT31;63666;52.284;20.890;2023-04-12T01:27:54;20.91;43.80
41142;SHT31;63666;52.284;20.890;2023-04-12T01:30:32;20.85;43.83
41142;SHT31;63666;52.284;20.890;2023-04-12T01:33:09;20.77;43.98
41142;SHT31;63666;52.284;20.890;2023-04-12T01:35:47;20.74;44.17
41142;SHT31;63666;52.284;20.890;2023-04-12T01:38:24;20.82;44.00
41142;SHT31;63666;52.284;20.890;2023-04-12T01:41:00;20.92;43.88
41142;SHT31;63666;52.284;20.890;2023-04-12T01:43:40;20.91;43.80
41142;SHT31;63666;52.284;20.890;2023-04-12T01:46:15;20.77;44.00
41142;SHT31;63666;52.284;20.890;2023-04-12T01:48:55;20.68;44.20
41142;SHT31;63666;52.284;20.890;2023-04-12T01:51:34;20.81;43.98
41142;SHT31;63666;52.284;20.890;2023-04-12T01:54:23;20.88;43.80
41142;SHT31;63666;52.284;20.890;2023-04-12T01:56:59;20.65;44.29
41142;SHT31;63666;52.284;20.890;2023-04-12T01:59:39;20.80;43.93
41142;SHT31;63666;52.284;20.890;2023-04-12T02:02:15;20.83;43.92
41142;SHT31;63666;52.284;20.890;2023-04-12T02:04:53;20.90;43.74
41142;SHT31;63666;52.284;20.890;2023-04-12T02:07:28;20.75;43.97
41142;SHT31;63666;52.284;20.890;2023-04-12T02:10:03;20.85;43.85
41142;SHT31;63666;52.284;20.890;2023-04-12T02:12:38;20.70;43.96
41142;SHT31;63666;52.284;20.890;2023-04-12T02:15:12;20.58;44.22
41142;SHT31;63666;52.284;20.890;2023-04-12T02:17:49;20.61;44.29
41142;SHT31;63666;52.284;20.890;2023-04-12T02:20:25;20.76;43.95
41142;SHT31;63666;52.284;20.890;2023-04-12T02:23:00;20.50;44.34
41142;SHT31;63666;52.284;20.890;2023-04-12T02:25:39;20.58;44.26
41142;SHT31;63666;52.284;20.890;2023-04-12T02:28:16;20.57;44.20
41142;SHT31;63666;52.284;20.890;2023-04-12T02:30:51;20.63;44.15
41142;SHT31;63666;52.284;20.890;2023-04-12T02:33:27;20.73;43.96
41142;SHT31;63666;52.284;20.890;2023-04-12T02:36:01;20.76;43.86
41142;SHT31;63666;52.284;20.890;2023-04-12T02:38:41;20.81;43.80
41142;SHT31;63666;52.284;20.890;2023-04-12T02:41:19;20.59;44.11
41142;SHT31;63666;52.284;20.890;2023-04-12T02:43:55;20.59;44.17
41142;SHT31;63666;52.284;20.890;2023-04-12T02:46:30;20.73;43.90
41142;SHT31;63666;52.284;20.890;2023-04-12T02:49:07;20.79;43.86
41142;SHT31;63666;52.284;20.890;2023-04-12T02:51:41;20.81;43.78
41142;SHT31;63666;52.284;20.890;2023-04-12T02:54:18;20.83;43.77
41142;SHT31;63666;52.284;20.890;2023-04-12T02:56:56;20.80;43.76
41142;SHT31;63666;52.284;20.890;2023-04-12T02:59:32;20.60;44.16
41142;SHT31;63666;52.284;20.890;2023-04-12T03:02:07;20.73;43.96
41142;SHT31;63666;52.284;20.890;2023-04-12T03:04:41;20.79;43.81
41142;SHT31;63666;52.284;20.890;2023-04-12T03:07:20;20.82;43.73
41142;SHT31;63666;52.284;20.890;2023-04-12T03:09:56;20.80;43.71
41142;SHT31;63666;52.284;20.890;2023-04-12T03:12:30;20.79;44.23
41142;SHT31;63666;52.284;20.890;2023-04-12T03:15:05;20.65;44.63
41142;SHT31;63666;52.284;20.890;2023-04-12T03:17:42;20.64;44.78
41142;SHT31;63666;52.284;20.890;2023-04-12T03:20:19;20.63;45.01
41142;SHT31;63666;52.284;20.890;2023-04-12T03:22:53;20.75;44.82
41142;SHT31;63666;52.284;20.890;2023-04-12T03:25:28;20.83;44.77
41142;SHT31;63666;52.284;20.890;2023-04-12T03:28:03;20.84;44.70
41142;SHT31;63666;52.284;20.890;2023-04-12T03:30:37;20.81;44.72
41142;SHT31;63666;52.284;20.890;2023-04-12T03:33:11;20.79;44.82
41142;SHT31;63666;52.284;20.890;2023-04-12T03:35:45;20.78;44.92
41142;SHT31;63666;52.284;20.890;2023-04-12T03:38:19;20.77;44.93
41142;SHT31;63666;52.284;20.890;2023-04-12T03:40:53;20.80;44.64
41142;SHT31;63666;52.284;20.890;2023-04-12T03:43:27;20.76;44.55
41142;SHT31;63666;52.284;20.890;2023-04-12T03:46:04;20.75;44.58
41142;SHT31;63666;52.284;20.890;2023-04-12T03:48:39;20.70;44.69
41142;SHT31;63666;52.284;20.890;2023-04-12T03:51:14;20.63;44.75
41142;SHT31;63666;52.284;20.890;2023-04-12T03:53:50;20.69;44.59
41142;SHT31;63666;52.284;20.890;2023-04-12T03:56:25;20.66;45.11
41142;SHT31;63666;52.284;20.890;2023-04-12T03:59:02;20.74;45.24
41142;SHT31;63666;52.284;20.890;2023-04-12T04:01:38;20.79;45.26
41142;SHT31;63666;52.284;20.890;2023-04-12T04:04:14;20.83;45.13
41142;SHT31;63666;52.284;20.890;2023-04-12T04:06:51;20.85;44.99
41142;SHT31;63666;52.284;20.890;2023-04-12T04:09:28;20.97;44.68
41142;SHT31;63666;52.284;20.890;2023-04-12T04:12:04;21.07;44.48
41142;SHT31;63666;52.284;20.890;2023-04-12T04:14:40;21.12;44.24
41142;SHT31;63666;52.284;20.890;2023-04-12T04:17:14;21.13;44.25
41142;SHT31;63666;52.284;20.890;2023-04-12T04:19:49;21.20;44.14
41142;SHT31;63666;52.284;20.890;2023-04-12T04:22:26;21.16;44.02
41142;SHT31;63666;52.284;20.890;2023-04-12T04:25:00;21.19;44.13
41142;SHT31;63666;52.284;20.890;2023-04-12T04:27:37;21.27;43.90
41142;SHT31;63666;52.284;20.890;2023-04-12T04:30:14;21.28;43.84
41142;SHT31;63666;52.284;20.890;2023-04-12T04:32:52;21.30;43.88
41142;SHT31;63666;52.284;20.890;2023-04-12T04:35:26;21.34;43.79
41142;SHT31;63666;52.284;20.890;2023-04-12T04:38:01;21.33;43.78
41142;SHT31;63666;52.284;20.890;2023-04-12T04:40:36;21.41;43.74
41142;SHT31;63666;52.284;20.890;2023-04-12T04:43:12;21.46;43.55
41142;SHT31;63666;52.284;20.890;2023-04-12T04:45:50;21.45;43.51
41142;SHT31;63666;52.284;20.890;2023-04-12T04:48:25;21.47;43.52
41142;SHT31;63666;52.284;20.890;2023-04-12T04:51:00;21.46;43.49
41142;SHT31;63666;52.284;20.890;2023-04-12T04:53:36;21.48;43.43
41142;SHT31;63666;52.284;20.890;2023-04-12T04:56:10;21.46;43.46
41142;SHT31;63666;52.284;20.890;2023-04-12T04:58:45;21.52;43.38
41142;SHT31;63666;52.284;20.890;2023-04-12T05:01:19;21.49;43.28
41142;SHT31;63666;52.284;20.890;2023-04-12T05:03:57;21.49;43.39
41142;SHT31;63666;52.284;20.890;2023-04-12T05:06:31;21.54;43.43
41142;SHT31;63666;52.284;20.890;2023-04-12T05:09:05;21.41;43.64
41142;SHT31;63666;52.284;20.890;2023-04-12T05:11:42;21.42;43.72
41142;SHT31;63666;52.284;20.890;2023-04-12T05:14:16;21.50;43.68
41142;SHT31;63666;52.284;20.890;2023-04-12T05:16:52;21.49;43.57
41142;SHT31;63666;52.284;20.890;2023-04-12T05:19:28;21.42;43.70
41142;SHT31;63666;52.284;20.890;2023-04-12T05:22:02;21.43;43.80
41142;SHT31;63666;52.284;20.890;2023-04-12T05:24:37;21.46;43.71
41142;SHT31;63666;52.284;20.890;2023-04-12T05:27:14;21.47;43.70
41142;SHT31;63666;52.284;20.890;2023-04-12T05:29:51;21.45;43.69
41142;SHT31;63666;52.284;20.890;2023-04-12T05:32:26;21.42;43.72
41142;SHT31;63666;52.284;20.890;2023-04-12T05:35:02;21.38;43.77
41142;SHT31;63666;52.284;20.890;2023-04-12T05:37:37;21.24;43.82
41142;SHT31;63666;52.284;20.890;2023-04-12T05:40:13;21.15;43.92
41142;SHT31;63666;52.284;20.890;2023-04-12T05:42:47;21.10;44.05
41142;SHT31;63666;52.284;20.890;2023-04-12T05:45:25;21.22;43.87
41142;SHT31;63666;52.284;20.890;2023-04-12T05:48:01;21.26;43.67
41142;SHT31;63666;52.284;20.890;2023-04-12T05:50:36;21.07;44.08
41142;SHT31;63666;52.284;20.890;2023-04-12T05:53:10;20.85;45.83
41142;SHT31;63666;52.284;20.890;2023-04-12T05:55:44;20.70;46.46
41142;SHT31;63666;52.284;20.890;2023-04-12T05:58:18;20.60;46.37
41142;SHT31;63666;52.284;20.890;2023-04-12T06:00:52;20.56;46.43
41142;SHT31;63666;52.284;20.890;2023-04-12T06:03:28;20.86;45.91
41142;SHT31;63666;52.284;20.890;2023-04-12T06:06:02;20.77;45.86
41142;SHT31;63666;52.284;20.890;2023-04-12T06:08:37;20.94;45.82
41142;SHT31;63666;52.284;20.890;2023-04-12T06:11:13;20.97;45.74
41142;SHT31;63666;52.284;20.890;2023-04-12T06:13:49;21.14;45.56
41142;SHT31;63666;52.284;20.890;2023-04-12T06:16:23;21.18;45.45
41142;SHT31;63666;52.284;20.890;2023-04-12T06:18:57;21.16;45.28
41142;SHT31;63666;52.284;20.890;2023-04-12T06:21:33;21.20;45.13
41142;SHT31;63666;52.284;20.890;2023-04-12T06:24:09;21.24;44.90
41142;SHT31;63666;52.284;20.890;2023-04-12T06:26:44;21.22;44.79
41142;SHT31;63666;52.284;20.890;2023-04-12T06:29:21;21.24;44.73
41142;SHT31;63666;52.284;20.890;2023-04-12T06:31:55;21.29;45.04
41142;SHT31;63666;52.284;20.890;2023-04-12T06:34:28;21.37;45.66
41142;SHT31;63666;52.284;20.890;2023-04-12T06:37:04;21.31;45.57
41142;SHT31;63666;52.284;20.890;2023-04-12T06:39:40;21.32;45.52
41142;SHT31;63666;52.284;20.890;2023-04-12T06:42:16;21.41;45.46
41142;SHT31;63666;52.284;20.890;2023-04-12T06:44:49;21.46;45.34
41142;SHT31;63666;52.284;20.890;2023-04-12T06:47:24;21.49;45.36
41142;SHT31;63666;52.284;20.890;2023-04-12T06:50:05;21.47;45.19
41142;SHT31;63666;52.284;20.890;2023-04-12T06:52:40;21.46;45.19
41142;SHT31;63666;52.284;20.890;2023-04-12T06:55:17;21.48;45.20
41142;SHT31;63666;52.284;20.890;2023-04-12T06:57:52;21.60;45.11
41142;SHT31;63666;52.284;20.890;2023-04-12T07:00:29;21.68;44.92
41142;SHT31;63666;52.284;20.890;2023-04-12T07:03:04;21.68;44.75
41142;SHT31;63666;52.284;20.890;2023-04-12T07:05:41;21.72;44.81
41142;SHT31;63666;52.284;20.890;2023-04-12T07:08:15;21.76;44.73
41142;SHT31;63666;52.284;20.890;2023-04-12T07:10:53;21.85;45.83
41142;SHT31;63666;52.284;20.890;2023-04-12T07:13:38;21.94;45.71
41142;SHT31;63666;52.284;20.890;2023-04-12T07:16:12;21.94;45.85
41142;SHT31;63666;52.284;20.890;2023-04-12T07:18:48;22.00;45.21
41142;SHT31;63666;52.284;20.890;2023-04-12T07:21:23;22.01;45.10
41142;SHT31;63666;52.284;20.890;2023-04-12T07:23:56;22.18;45.58
41142;SHT31;63666;52.284;20.890;2023-04-12T07:26:31;22.26;45.43
41142;SHT31;63666;52.284;20.890;2023-04-12T07:29:05;22.30;45.19
41142;SHT31;63666;52.284;20.890;2023-04-12T07:31:38;22.33;44.72
41142;SHT31;63666;52.284;20.890;2023-04-12T07:34:13;22.29;44.93
41142;SHT31;63666;52.284;20.890;2023-04-12T07:36:49;22.38;44.17
41142;SHT31;63666;52.284;20.890;2023-04-12T07:39:22;22.39;44.05
41142;SHT31;63666;52.284;20.890;2023-04-12T07:41:58;22.45;43.74
41142;SHT31;63666;52.284;20.890;2023-04-12T07:44:32;22.48;43.35
41142;SHT31;63666;52.284;20.890;2023-04-12T07:47:07;22.50;43.19
41142;SHT31;63666;52.284;20.890;2023-04-12T07:49:42;22.50;43.14
41142;SHT31;63666;52.284;20.890;2023-04-12T07:52:16;22.46;43.17
41142;SHT31;63666;52.284;20.890;2023-04-12T07:54:49;22.44;43.12
41142;SHT31;63666;52.284;20.890;2023-04-12T07:57:23;22.46;43.04
41142;SHT31;63666;52.284;20.890;2023-04-12T07:59:57;22.44;43.12
41142;SHT31;63666;52.284;20.890;2023-04-12T08:02:35;22.46;43.08
41142;SHT31;63666;52.284;20.890;2023-04-12T08:05:11;22.45;42.99
41142;SHT31;63666;52.284;20.890;2023-04-12T08:07:47;22.40;43.14
41142;SHT31;63666;52.284;20.890;2023-04-12T08:10:25;22.37;43.19
41142;SHT31;63666;52.284;20.890;2023-04-12T08:13:00;22.43;43.11
41142;SHT31;63666;52.284;20.890;2023-04-12T08:15:36;22.42;42.96
41142;SHT31;63666;52.284;20.890;2023-04-12T08:18:14;22.44;42.91
41142;SHT31;63666;52.284;20.890;2023-04-12T08:20:47;22.43;42.76
41142;SHT31;63666;52.284;20.890;2023-04-12T08:23:22;22.40;42.84
41142;SHT31;63666;52.284;20.890;2023-04-12T08:25:58;22.44;42.80
41142;SHT31;63666;52.284;20.890;2023-04-12T08:28:32;22.41;42.79
41142;SHT31;63666;52.284;20.890;2023-04-12T08:31:08;22.40;42.77
41142;SHT31;63666;52.284;20.890;2023-04-12T08:33:43;22.39;42.76
41142;SHT31;63666;52.284;20.890;2023-04-12T08:36:17;22.41;42.72
41142;SHT31;63666;52.284;20.890;2023-04-12T08:38:52;22.40;42.72
41142;SHT31;63666;52.284;20.890;2023-04-12T08:41:29;22.33;42.88
41142;SHT31;63666;52.284;20.890;2023-04-12T08:44:07;22.28;42.95
41142;SHT31;63666;52.284;20.890;2023-04-12T08:46:43;22.24;42.91
41142;SHT31;63666;52.284;20.890;2023-04-12T08:49:22;22.22;42.93
41142;SHT31;63666;52.284;20.890;2023-04-12T08:51:56;22.20;42.87
41142;SHT31;63666;52.284;20.890;2023-04-12T08:54:34;22.19;42.85
41142;SHT31;63666;52.284;20.890;2023-04-12T08:57:11;22.16;42.64
41142;SHT31;63666;52.284;20.890;2023-04-12T08:59:47;22.19;42.94
41142;SHT31;63666;52.284;20.890;2023-04-12T09:02:24;22.23;42.82
41142;SHT31;63666;52.284;20.890;2023-04-12T09:05:03;22.24;42.79
41142;SHT31;63666;52.284;20.890;2023-04-12T09:07:38;22.26;42.64
41142;SHT31;63666;52.284;20.890;2023-04-12T09:10:17;22.29;42.40
41142;SHT31;63666;52.284;20.890;2023-04-12T09:13:08;22.31;42.32
41142;SHT31;63666;52.284;20.890;2023-04-12T09:15:49;22.30;42.33
41142;SHT31;63666;52.284;20.890;2023-04-12T09:18:23;22.31;42.44
41142;SHT31;63666;52.284;20.890;2023-04-12T09:21:09;22.38;42.26
41142;SHT31;63666;52.284;20.890;2023-04-12T09:23:44;22.42;42.15
41142;SHT31;63666;52.284;20.890;2023-04-12T09:26:42;22.50;42.05
41142;SHT31;63666;52.284;20.890;2023-04-12T09:29:22;22.60;42.04
41142;SHT31;63666;52.284;20.890;2023-04-12T09:31:59;22.72;41.86
41142;SHT31;63666;52.284;20.890;2023-04-12T09:34:36;22.76;41.68
41142;SHT31;63666;52.284;20.890;2023-04-12T09:37:27;22.79;41.77
41142;SHT31;63666;52.284;20.890;2023-04-12T09:40:03;22.76;42.24
41142;SHT31;63666;52.284;20.890;2023-04-12T09:42:51;22.82;41.72
41142;SHT31;63666;52.284;20.890;2023-04-12T09:45:27;22.84;41.58
41142;SHT31;63666;52.284;20.890;2023-04-12T09:48:08;22.88;41.48
41142;SHT31;63666;52.284;20.890;2023-04-12T09:50:53;22.82;41.72
41142;SHT31;63666;52.284;20.890;2023-04-12T09:53:33;22.58;41.79
41142;SHT31;63666;52.284;20.890;2023-04-12T09:56:09;22.44;42.15
41142;SHT31;63666;52.284;20.890;2023-04-12T09:58:45;22.57;42.00
41142;SHT31;63666;52.284;20.890;2023-04-12T10:01:23;22.56;41.93
41142;SHT31;63666;52.284;20.890;2023-04-12T10:03:59;22.54;41.99
41142;SHT31;63666;52.284;20.890;2023-04-12T10:06:33;22.52;42.08
41142;SHT31;63666;52.284;20.890;2023-04-12T10:09:13;22.50;41.93
41142;SHT31;63666;52.284;20.890;2023-04-12T10:11:48;22.47;41.83
41142;SHT31;63666;52.284;20.890;2023-04-12T10:14:28;22.39;41.91
41142;SHT31;63666;52.284;20.890;2023-04-12T10:17:03;22.41;41.87
41142;SHT31;63666;52.284;20.890;2023-04-12T10:19:40;22.32;41.89
41142;SHT31;63666;52.284;20.890;2023-04-12T10:22:18;22.32;41.91
41142;SHT31;63666;52.284;20.890;2023-04-12T10:24:55;22.38;42.10
41142;SHT31;63666;52.284;20.890;2023-04-12T10:27:30;22.49;41.99
41142;SHT31;63666;52.284;20.890;2023-04-12T10:35:51;22.64;41.51
41142;SHT31;63666;52.284;20.890;2023-04-12T10:38:43;22.66;41.52
41142;SHT31;63666;52.284;20.890;2023-04-12T10:41:43;22.68;41.41
41142;SHT31;63666;52.284;20.890;2023-04-12T10:44:52;22.71;41.56
41142;SHT31;63666;52.284;20.890;2023-04-12T10:50:31;22.69;41.40
41142;SHT31;63666;52.284;20.890;2023-04-12T10:56:00;22.70;41.32
41142;SHT31;63666;52.284;20.890;2023-04-12T10:59:08;22.71;41.33
41142;SHT31;63666;52.284;20.890;2023-04-12T11:07:42;22.71;41.31
41142;SHT31;63666;52.284;20.890;2023-04-12T11:10:17;22.73;41.24
41142;SHT31;63666;52.284;20.890;2023-04-12T11:12:55;22.74;41.28
41142;SHT31;63666;52.284;20.890;2023-04-12T11:15:40;22.73;41.33
41142;SHT31;63666;52.284;20.890;2023-04-12T11:18:17;22.76;41.26
41142;SHT31;63666;52.284;20.890;2023-04-12T11:20:56;22.70;41.52
41142;SHT31;63666;52.284;20.890;2023-04-12T11:23:31;22.64;41.40
41142;SHT31;63666;52.284;20.890;2023-04-12T11:26:07;22.71;41.48
41142;SHT31;63666;52.284;20.890;2023-04-12T11:28:41;22.60;41.29
41142;SHT31;63666;52.284;20.890;2023-04-12T11:31:21;22.52;41.10
41142;SHT31;63666;52.284;20.890;2023-04-12T11:33:57;22.51;41.21
41142;SHT31;63666;52.284;20.890;2023-04-12T11:36:37;22.44;41.13
41142;SHT31;63666;52.284;20.890;2023-04-12T11:39:13;22.42;41.18
41142;SHT31;63666;52.284;20.890;2023-04-12T11:41:49;22.45;41.24
41142;SHT31;63666;52.284;20.890;2023-04-12T11:44:25;22.44;41.22
41142;SHT31;63666;52.284;20.890;2023-04-12T11:47:21;22.43;41.33
41142;SHT31;63666;52.284;20.890;2023-04-12T11:49:59;22.41;41.28
41142;SHT31;63666;52.284;20.890;2023-04-12T11:52:34;22.38;41.06
41142;SHT31;63666;52.284;20.890;2023-04-12T11:55:10;22.33;41.13
41142;SHT31;63666;52.284;20.890;2023-04-12T11:57:47;22.26;41.08
41142;SHT31;63666;52.284;20.890;2023-04-12T12:00:25;22.13;41.26
41142;SHT31;63666;52.284;20.890;2023-04-12T12:02:59;22.07;41.51
41142;SHT31;63666;52.284;20.890;2023-04-12T12:05:37;22.10;41.56
41142;SHT31;63666;52.284;20.890;2023-04-12T12:08:13;22.12;41.27
41142;SHT31;63666;52.284;20.890;2023-04-12T12:10:48;22.16;41.38
41142;SHT31;63666;52.284;20.890;2023-04-12T12:13:46;22.19;41.22
41142;SHT31;63666;52.284;20.890;2023-04-12T12:16:24;22.22;41.22
41142;SHT31;63666;52.284;20.890;2023-04-12T12:19:03;22.23;41.13
41142;SHT31;63666;52.284;20.890;2023-04-12T12:21:38;22.22;41.04
41142;SHT31;63666;52.284;20.890;2023-04-12T12:24:17;22.20;40.95
41142;SHT31;63666;52.284;20.890;2023-04-12T12:26:59;22.19;40.92
41142;SHT31;63666;52.284;20.890;2023-04-12T12:29:34;22.17;40.93
41142;SHT31;63666;52.284;20.890;2023-04-12T12:32:12;22.11;40.75
41142;SHT31;63666;52.284;20.890;2023-04-12T12:34:50;22.08;40.90
41142;SHT31;63666;52.284;20.890;2023-04-12T12:37:26;22.10;40.73
41142;SHT31;63666;52.284;20.890;2023-04-12T12:40:03;22.11;40.58
41142;SHT31;63666;52.284;20.890;2023-04-12T12:42:46;22.13;40.68
41142;SHT31;63666;52.284;20.890;2023-04-12T12:45:23;22.17;40.75
41142;SHT31;63666;52.284;20.890;2023-04-12T12:48:00;22.18;40.83
41142;SHT31;63666;52.284;20.890;2023-04-12T12:50:38;22.19;40.87
41142;SHT31;63666;52.284;20.890;2023-04-12T12:53:15;22.17;40.78
41142;SHT31;63666;52.284;20.890;2023-04-12T12:55:53;22.12;40.83
41142;SHT31;63666;52.284;20.890;2023-04-12T12:58:33;22.10;40.73
41142;SHT31;63666;52.284;20.890;2023-04-12T13:01:13;22.10;40.85
41142;SHT31;63666;52.284;20.890;2023-04-12T13:03:49;22.15;41.05
41142;SHT31;63666;52.284;20.890;2023-04-12T13:06:24;22.16;41.17
41142;SHT31;63666;52.284;20.890;2023-04-12T13:09:00;22.17;41.40
41142;SHT31;63666;52.284;20.890;2023-04-12T13:11:36;22.18;41.35
41142;SHT31;63666;52.284;20.890;2023-04-12T13:14:12;22.19;41.34
41142;SHT31;63666;52.284;20.890;2023-04-12T13:16:47;22.17;41.47
41142;SHT31;63666;52.284;20.890;2023-04-12T13:19:22;22.19;41.79
41142;SHT31;63666;52.284;20.890;2023-04-12T13:21:58;22.17;42.19
41142;SHT31;63666;52.284;20.890;2023-04-12T13:24:32;22.16;42.16
41142;SHT31;63666;52.284;20.890;2023-04-12T13:27:08;22.17;41.95
41142;SHT31;63666;52.284;20.890;2023-04-12T13:29:44;22.16;42.01
41142;SHT31;63666;52.284;20.890;2023-04-12T13:32:20;22.15;42.08
41142;SHT31;63666;52.284;20.890;2023-04-12T13:34:55;22.17;42.14
41142;SHT31;63666;52.284;20.890;2023-04-12T13:37:29;22.17;42.19
41142;SHT31;63666;52.284;20.890;2023-04-12T13:40:05;22.17;42.15
41142;SHT31;63666;52.284;20.890;2023-04-12T13:42:40;22.17;42.23
41142;SHT31;63666;52.284;20.890;2023-04-12T13:45:16;22.17;42.27
41142;SHT31;63666;52.284;20.890;2023-04-12T13:47:50;22.17;42.39
41142;SHT31;63666;52.284;20.890;2023-04-12T13:50:27;22.17;42.61
41142;SHT31;63666;52.284;20.890;2023-04-12T13:53:02;22.17;43.56
41142;SHT31;63666;52.284;20.890;2023-04-12T13:55:37;22.17;43.42
41142;SHT31;63666;52.284;20.890;2023-04-12T13:58:11;22.17;43.04
41142;SHT31;63666;52.284;20.890;2023-04-12T14:00:45;22.20;42.89
41142;SHT31;63666;52.284;20.890;2023-04-12T14:03:19;22.20;42.94
41142;SHT31;63666;52.284;20.890;2023-04-12T14:05:53;22.21;43.23
41142;SHT31;63666;52.284;20.890;2023-04-12T14:08:29;22.23;43.26
41142;SHT31;63666;52.284;20.890;2023-04-12T14:11:03;22.23;43.36
41142;SHT31;63666;52.284;20.890;2023-04-12T14:13:37;22.22;43.47
41142;SHT31;63666;52.284;20.890;2023-04-12T14:16:11;22.21;43.56
41142;SHT31;63666;52.284;20.890;2023-04-12T14:18:45;22.20;43.68
41142;SHT31;63666;52.284;20.890;2023-04-12T14:21:19;22.21;43.65
41142;SHT31;63666;52.284;20.890;2023-04-12T14:23:57;22.38;43.56
41142;SHT31;63666;52.284;20.890;2023-04-12T14:26:31;22.43;43.20
41142;SHT31;63666;52.284;20.890;2023-04-12T14:29:08;22.47;43.29
41142;SHT31;63666;52.284;20.890;2023-04-12T14:31:43;22.50;43.23
41142;SHT31;63666;52.284;20.890;2023-04-12T14:34:17;22.50;42.95
41142;SHT31;63666;52.284;20.890;2023-04-12T14:36:52;22.51;42.88
41142;SHT31;63666;52.284;20.890;2023-04-12T14:39:26;22.55;42.92
41142;SHT31;63666;52.284;20.890;2023-04-12T14:42:04;22.56;42.86
41142;SHT31;63666;52.284;20.890;2023-04-12T14:44:37;22.56;42.85
41142;SHT31;63666;52.284;20.890;2023-04-12T14:47:12;22.59;42.80
41142;SHT31;63666;52.284;20.890;2023-04-12T14:49:47;22.60;42.75
41142;SHT31;63666;52.284;20.890;2023-04-12T14:52:22;22.60;42.77
41142;SHT31;63666;52.284;20.890;2023-04-12T14:55:03;22.61;42.66
41142;SHT31;63666;52.284;20.890;2023-04-12T14:57:41;22.59;42.71
41142;SHT31;63666;52.284;20.890;2023-04-12T15:00:17;22.60;42.71
41142;SHT31;63666;52.284;20.890;2023-04-12T15:02:52;22.62;42.62
41142;SHT31;63666;52.284;20.890;2023-04-12T15:05:29;22.65;42.50
41142;SHT31;63666;52.284;20.890;2023-04-12T15:08:02;22.54;42.75
41142;SHT31;63666;52.284;20.890;2023-04-12T15:10:37;22.50;42.68
41142;SHT31;63666;52.284;20.890;2023-04-12T15:13:11;22.47;42.78
41142;SHT31;63666;52.284;20.890;2023-04-12T15:15:45;22.42;42.85
41142;SHT31;63666;52.284;20.890;2023-04-12T15:18:19;22.39;42.84
41142;SHT31;63666;52.284;20.890;2023-04-12T15:20:53;22.38;42.83
41142;SHT31;63666;52.284;20.890;2023-04-12T15:23:28;22.36;42.82
41142;SHT31;63666;52.284;20.890;2023-04-12T15:26:02;22.34;42.81
41142;SHT31;63666;52.284;20.890;2023-04-12T15:28:37;22.31;42.83
41142;SHT31;63666;52.284;20.890;2023-04-12T15:31:11;22.31;42.90
41142;SHT31;63666;52.284;20.890;2023-04-12T15:33:44;22.31;42.99
41142;SHT31;63666;52.284;20.890;2023-04-12T15:36:19;22.28;43.09
41142;SHT31;63666;52.284;20.890;2023-04-12T15:39:01;22.30;43.04
41142;SHT31;63666;52.284;20.890;2023-04-12T15:41:37;22.41;42.87
41142;SHT31;63666;52.284;20.890;2023-04-12T15:44:11;22.50;42.63
41142;SHT31;63666;52.284;20.890;2023-04-12T15:46:45;22.53;42.50
41142;SHT31;63666;52.284;20.890;2023-04-12T15:49:35;22.52;42.54
41142;SHT31;63666;52.284;20.890;2023-04-12T15:52:09;22.40;42.81
41142;SHT31;63666;52.284;20.890;2023-04-12T15:54:47;22.37;42.79
41142;SHT31;63666;52.284;20.890;2023-04-12T15:57:25;22.36;42.79
41142;SHT31;63666;52.284;20.890;2023-04-12T16:00:02;22.32;42.80
41142;SHT31;63666;52.284;20.890;2023-04-12T16:02:51;22.28;42.89
41142;SHT31;63666;52.284;20.890;2023-04-12T16:05:26;22.27;42.91
41142;SHT31;63666;52.284;20.890;2023-04-12T16:08:04;22.25;42.92
41142;SHT31;63666;52.284;20.890;2023-04-12T16:10:40;22.23;42.90
41142;SHT31;63666;52.284;20.890;2023-04-12T16:13:19;22.23;42.91
41142;SHT31;63666;52.284;20.890;2023-04-12T16:15:54;22.21;42.91
41142;SHT31;63666;52.284;20.890;2023-04-12T16:18:30;22.18;42.91
41142;SHT31;63666;52.284;20.890;2023-04-12T16:21:08;22.17;42.93
41142;SHT31;63666;52.284;20.890;2023-04-12T16:23:46;22.17;42.88
41142;SHT31;63666;52.284;20.890;2023-04-12T16:26:22;22.15;42.89
41142;SHT31;63666;52.284;20.890;2023-04-12T16:28:58;22.12;42.91
41142;SHT31;63666;52.284;20.890;2023-04-12T16:31:37;22.11;42.92